Time;durP1;ratioP1;P1;durP2;ratioP2;P2;SDS_P1;SDS_P2;PMS_P1;PMS_P2;Temp;Humidity;BMP_temperature;BMP_pressure;BME280_temperature;BME280_humidity;BME280_pressure;Samples;Min_cycle;Max_cycle;Signal;HPM_P1;HPM_P2
2022/10/15 00:02:23;;;;;;;;;;;21.90;50.00;20.60;100326.00;;;;5075631;28;19916;-73
2022/10/15 00:05:09;;;;;;;;;;;21.80;50.00;20.60;100322.00;;;;5077386;28;20047;-72
2022/10/15 00:07:55;;;;;;;;;;;21.90;50.00;20.60;100317.00;;;;5077869;28;19917;-72
2022/10/15 00:10:41;;;;;;;;;;;21.90;50.00;20.60;100315.00;;;;5084588;28;19927;-72
2022/10/15 00:13:27;;;;;;;;;;;21.90;50.00;20.60;100321.00;;;;5075758;28;19932;-73
2022/10/15 00:16:18;;;;;;;;;;;21.80;50.00;20.60;100316.00;;;;5081510;28;19916;-72
2022/10/15 00:19:04;;;;;;;;;;;21.80;50.00;20.60;100313.00;;;;5078348;28;19927;-72
2022/10/15 00:21:50;;;;;;;;;;;21.80;50.00;20.60;100314.00;;;;5079874;27;19916;-72
2022/10/15 00:24:36;;;;;;;;;;;21.80;50.00;20.60;100307.00;;;;5062046;28;19928;-72
2022/10/15 00:27:22;;;;;;;;;;;21.80;50.00;20.60;100317.00;;;;5061742;28;19916;-73
2022/10/15 00:30:08;;;;;;;;;;;21.80;50.00;20.60;100321.00;;;;5088460;28;19928;-73
2022/10/15 00:32:54;;;;;;;;;;;21.80;50.00;20.60;100331.00;;;;5073351;28;20365;-72
2022/10/15 00:35:40;;;;;;;;;;;21.90;50.10;20.60;100338.00;;;;5084680;28;19920;-73
2022/10/15 00:38:26;;;;;;;;;;;21.80;50.00;20.60;100333.00;;;;5077175;28;19924;-72
2022/10/15 00:41:17;;;;;;;;;;;21.90;50.10;20.60;100332.00;;;;5084136;28;19999;-72
2022/10/15 00:44:27;;;;;;;;;;;21.80;50.10;20.60;100337.00;;;;5081564;28;19916;-72
2022/10/15 00:47:23;;;;;;;;;;;21.80;50.00;20.60;100337.00;;;;5075018;28;19950;-72
2022/10/15 00:50:19;;;;;;;;;;;21.80;50.10;20.60;100341.00;;;;5074058;28;19955;-72
2022/10/15 00:53:07;;;;;;;;;;;21.70;50.00;20.60;100339.00;;;;5082380;28;19920;-72
2022/10/15 00:55:53;;;;;;;;;;;21.80;50.10;20.60;100340.00;;;;5086371;28;19927;-72
2022/10/15 00:58:39;;;;;;;;;;;21.80;50.10;20.50;100340.00;;;;5079633;28;19920;-73
2022/10/15 01:01:25;;;;;;;;;;;21.80;50.10;20.50;100337.00;;;;5086868;28;19916;-72
2022/10/15 01:04:11;;;;;;;;;;;21.80;50.10;20.50;100332.00;;;;5078259;28;20320;-72
2022/10/15 01:06:57;;;;;;;;;;;21.80;50.10;20.50;100324.00;;;;5072814;28;19948;-72
2022/10/15 01:09:43;;;;;;;;;;;21.80;50.10;20.50;100318.00;;;;5091585;28;20002;-72
2022/10/15 01:12:54;;;;;;;;;;;21.80;50.10;20.60;100317.00;;;;5092545;28;20362;-72
2022/10/15 01:15:55;;;;;;;;;;;21.80;50.10;20.60;100318.00;;;;5050608;28;20273;-72
2022/10/15 01:18:45;;;;;;;;;;;21.80;50.20;20.60;100316.00;;;;5083518;28;20010;-72
2022/10/15 01:21:43;;;;;;;;;;;21.80;50.10;20.50;100308.00;;;;5080232;28;19930;-72
2022/10/15 01:24:55;;;;;;;;;;;21.80;50.10;20.60;100312.00;;;;5057650;28;19925;-72
2022/10/15 01:27:42;;;;;;;;;;;21.70;50.00;20.50;100308.00;;;;5085719;28;19978;-72
2022/10/15 01:30:37;;;;;;;;;;;21.70;50.10;20.60;100306.00;;;;5093126;28;19959;-72
2022/10/15 01:33:49;;;;;;;;;;;21.80;50.10;20.50;100308.00;;;;5059647;28;19916;-72
2022/10/15 01:36:37;;;;;;;;;;;21.80;50.10;20.60;100310.00;;;;5084744;28;20220;-72
2022/10/15 01:39:29;;;;;;;;;;;21.80;50.10;20.50;100300.00;;;;5059469;28;19966;-72
2022/10/15 01:42:17;;;;;;;;;;;21.80;50.10;20.60;100303.00;;;;5095764;27;19965;-72
2022/10/15 01:45:08;;;;;;;;;;;21.70;50.10;20.50;100308.00;;;;5054257;28;19926;-72
2022/10/15 01:47:55;;;;;;;;;;;21.80;50.10;20.60;100312.00;;;;5089384;28;19916;-72
2022/10/15 01:50:43;;;;;;;;;;;21.80;50.10;20.60;100305.00;;;;5063848;28;19920;-72
2022/10/15 01:53:29;;;;;;;;;;;21.70;50.00;20.50;100308.00;;;;5072473;28;20388;-72
2022/10/15 01:56:18;;;;;;;;;;;21.80;50.10;20.50;100309.00;;;;5093469;28;19916;-73
2022/10/15 01:59:04;;;;;;;;;;;21.80;50.10;20.50;100305.00;;;;5089398;28;19920;-72
2022/10/15 02:01:50;;;;;;;;;;;21.80;50.10;20.50;100302.00;;;;5087106;28;19923;-72
2022/10/15 02:04:36;;;;;;;;;;;21.80;50.10;20.60;100295.00;;;;5080861;28;19929;-72
2022/10/15 02:07:34;;;;;;;;;;;21.70;50.10;20.50;100286.00;;;;5078758;28;20352;-72
2022/10/15 02:10:27;;;;;;;;;;;21.80;50.20;20.50;100287.00;;;;5088246;28;19970;-72
2022/10/15 02:13:47;;;;;;;;;;;21.70;50.00;20.60;100288.00;;;;5093760;28;19951;-73
2022/10/15 02:16:47;;;;;;;;;;;21.80;50.10;20.50;100289.00;;;;5083169;28;19959;-72
2022/10/15 02:19:48;;;;;;;;;;;21.70;50.00;20.50;100287.00;;;;5051239;28;19921;-72
2022/10/15 02:22:38;;;;;;;;;;;21.80;50.10;20.50;100283.00;;;;5100716;28;19939;-72
2022/10/15 02:25:24;;;;;;;;;;;21.80;50.20;20.60;100281.00;;;;5091403;28;19920;-72
2022/10/15 02:28:10;;;;;;;;;;;21.80;50.80;20.50;100274.00;;;;5089320;28;19917;-73
2022/10/15 02:30:57;;;;;;;;;;;21.80;50.10;20.50;100285.00;;;;5092478;28;19979;-73
2022/10/15 02:33:43;;;;;;;;;;;21.80;50.10;20.60;100277.00;;;;5078128;28;20379;-72
2022/10/15 02:36:29;;;;;;;;;;;21.80;50.10;20.60;100277.00;;;;5081804;28;19936;-72
2022/10/15 02:39:19;;;;;;;;;;;21.70;50.00;20.50;100274.00;;;;5064102;28;19934;-72
2022/10/15 02:42:05;;;;;;;;;;;21.80;50.10;20.50;100277.00;;;;5089632;28;19920;-72
2022/10/15 02:44:51;;;;;;;;;;;21.80;50.10;20.50;100281.00;;;;5097546;28;19968;-72
2022/10/15 02:47:37;;;;;;;;;;;21.80;50.10;20.60;100279.00;;;;5093463;28;19969;-72
2022/10/15 02:50:23;;;;;;;;;;;21.80;50.10;20.50;100285.00;;;;5082615;28;19974;-72
2022/10/15 02:53:09;;;;;;;;;;;21.80;50.10;20.60;100275.00;;;;5078324;28;19923;-72
2022/10/15 02:55:55;;;;;;;;;;;21.80;50.10;20.50;100277.00;;;;5080552;28;19920;-72
2022/10/15 02:58:41;;;;;;;;;;;21.70;50.00;20.50;100281.00;;;;5081852;28;19920;-72
2022/10/15 03:01:27;;;;;;;;;;;21.80;50.10;20.50;100274.00;;;;5078613;28;19921;-72
2022/10/15 03:04:13;;;;;;;;;;;21.80;50.10;20.50;100274.00;;;;5088329;28;19955;-72
2022/10/15 03:06:59;;;;;;;;;;;21.80;50.10;20.50;100273.00;;;;5076496;28;20342;-72
2022/10/15 03:09:45;;;;;;;;;;;21.80;50.10;20.50;100280.00;;;;5079887;28;20441;-72
2022/10/15 03:12:31;;;;;;;;;;;21.80;50.10;20.50;100270.00;;;;5079431;28;19924;-72
2022/10/15 03:15:17;;;;;;;;;;;21.80;50.10;20.50;100269.00;;;;5080186;28;19931;-72
2022/10/15 03:18:03;;;;;;;;;;;21.80;50.10;20.50;100281.00;;;;5087151;28;19916;-72
2022/10/15 03:20:53;;;;;;;;;;;21.80;50.10;20.50;100278.00;;;;5067031;28;20468;-72
2022/10/15 03:23:39;;;;;;;;;;;21.80;50.10;20.50;100273.00;;;;5091725;28;19962;-72
2022/10/15 03:26:25;;;;;;;;;;;21.70;50.00;20.50;100273.00;;;;5085796;28;20443;-72
2022/10/15 03:29:11;;;;;;;;;;;21.70;50.00;20.50;100279.00;;;;5068620;28;20953;-72
2022/10/15 03:31:57;;;;;;;;;;;21.80;50.10;20.50;100281.00;;;;5087333;28;20380;-72
2022/10/15 03:34:43;;;;;;;;;;;21.80;50.10;20.50;100290.00;;;;5077549;28;19920;-72
2022/10/15 03:37:29;;;;;;;;;;;21.70;50.00;20.50;100275.00;;;;5085602;28;19920;-72
2022/10/15 03:40:15;;;;;;;;;;;21.80;50.10;20.50;100270.00;;;;5079385;28;19924;-72
2022/10/15 03:43:01;;;;;;;;;;;21.80;50.10;20.50;100273.00;;;;5066590;28;19919;-72
2022/10/15 03:45:47;;;;;;;;;;;21.70;50.00;20.50;100268.00;;;;5080898;28;19921;-72
2022/10/15 03:48:33;;;;;;;;;;;21.90;50.20;20.50;100268.00;;;;5083288;28;19920;-72
2022/10/15 03:51:19;;;;;;;;;;;21.80;50.10;20.50;100265.00;;;;5086224;28;20012;-72
2022/10/15 03:54:05;;;;;;;;;;;21.80;50.10;20.50;100270.00;;;;5075747;28;20122;-72
2022/10/15 03:56:51;;;;;;;;;;;21.70;50.10;20.50;100270.00;;;;5085491;28;19922;-72
2022/10/15 03:59:38;;;;;;;;;;;21.80;50.10;20.50;100265.00;;;;5077487;28;19920;-72
2022/10/15 04:02:24;;;;;;;;;;;21.80;50.10;20.50;100266.00;;;;5077104;28;19924;-72
2022/10/15 04:05:09;;;;;;;;;;;21.80;50.20;20.50;100260.00;;;;5090651;28;20007;-72
2022/10/15 04:07:56;;;;;;;;;;;21.80;50.10;20.50;100261.00;;;;5077951;28;19920;-72
2022/10/15 04:10:42;;;;;;;;;;;21.70;50.10;20.50;100249.00;;;;5080829;28;19923;-72
2022/10/15 04:13:28;;;;;;;;;;;21.80;50.10;20.50;100252.00;;;;5076155;28;20372;-72
2022/10/15 04:16:14;;;;;;;;;;;21.70;50.30;20.50;100251.00;;;;5066766;28;19920;-72
2022/10/15 04:19:00;;;;;;;;;;;21.70;50.10;20.50;100246.00;;;;5078069;28;20274;-72
2022/10/15 04:21:46;;;;;;;;;;;21.70;50.10;20.50;100245.00;;;;5078221;28;19930;-72
2022/10/15 04:24:32;;;;;;;;;;;21.70;50.10;20.50;100250.00;;;;5088986;27;19916;-72
2022/10/15 04:27:18;;;;;;;;;;;21.80;50.10;20.50;100254.00;;;;5072850;28;19939;-72
2022/10/15 04:30:04;;;;;;;;;;;21.80;50.20;20.50;100253.00;;;;5081658;28;20285;-72
2022/10/15 04:32:51;;;;;;;;;;;21.70;50.10;20.50;100251.00;;;;5073770;28;20422;-72
2022/10/15 04:35:37;;;;;;;;;;;21.80;50.10;20.50;100252.00;;;;5081864;28;19951;-72
2022/10/15 04:38:23;;;;;;;;;;;21.70;50.10;20.50;100248.00;;;;5073989;28;19924;-72
2022/10/15 04:41:10;;;;;;;;;;;21.70;50.10;20.50;100245.00;;;;5077162;28;19923;-72
2022/10/15 04:43:57;;;;;;;;;;;21.70;50.10;20.50;100231.00;;;;5087604;27;19919;-72
2022/10/15 04:46:43;;;;;;;;;;;21.70;50.10;20.50;100235.00;;;;5075370;28;20011;-72
2022/10/15 04:49:29;;;;;;;;;;;21.70;50.10;20.50;100241.00;;;;5086239;28;19924;-72
2022/10/15 04:52:14;;;;;;;;;;;21.70;50.10;20.50;100241.00;;;;5077142;28;19916;-72
2022/10/15 04:55:03;;;;;;;;;;;21.70;50.10;20.50;100248.00;;;;5077263;28;19990;-72
2022/10/15 04:57:49;;;;;;;;;;;21.70;50.10;20.50;100249.00;;;;5085830;28;19929;-72
2022/10/15 05:00:36;;;;;;;;;;;21.60;50.00;20.50;100255.00;;;;5077809;28;19924;-72
2022/10/15 05:03:22;;;;;;;;;;;21.70;50.10;20.50;100249.00;;;;5091812;28;20277;-72
2022/10/15 05:06:10;;;;;;;;;;;21.70;50.10;20.50;100254.00;;;;5075559;28;20273;-72
2022/10/15 05:08:56;;;;;;;;;;;21.70;50.10;20.50;100266.00;;;;5091887;27;19924;-72
2022/10/15 05:11:42;;;;;;;;;;;21.70;50.10;20.50;100272.00;;;;5083000;28;19916;-72
2022/10/15 05:14:28;;;;;;;;;;;21.80;50.10;20.50;100265.00;;;;5064825;28;20074;-72
2022/10/15 05:17:14;;;;;;;;;;;21.70;50.10;20.50;100259.00;;;;5079481;28;19948;-72
2022/10/15 05:20:01;;;;;;;;;;;21.70;50.10;20.50;100270.00;;;;5070907;28;19950;-72
2022/10/15 05:22:47;;;;;;;;;;;21.70;50.10;20.50;100275.00;;;;5086580;28;20307;-72
2022/10/15 05:25:33;;;;;;;;;;;21.70;50.10;20.50;100274.00;;;;5087728;28;19932;-72
2022/10/15 05:28:19;;;;;;;;;;;21.70;50.10;20.50;100261.00;;;;5082863;28;20082;-73
2022/10/15 05:31:06;;;;;;;;;;;21.70;50.10;20.50;100263.00;;;;5074508;28;20035;-73
2022/10/15 05:33:52;;;;;;;;;;;21.70;50.10;20.50;100259.00;;;;5085186;28;19916;-72
2022/10/15 05:36:38;;;;;;;;;;;21.70;50.10;20.50;100258.00;;;;5072894;28;20317;-72
2022/10/15 05:39:24;;;;;;;;;;;21.70;50.10;20.50;100258.00;;;;5081593;28;19920;-72
2022/10/15 05:42:10;;;;;;;;;;;21.70;50.10;20.50;100257.00;;;;5079664;28;19927;-72
2022/10/15 05:44:56;;;;;;;;;;;21.70;50.10;20.50;100255.00;;;;5086510;28;19943;-72
2022/10/15 05:47:42;;;;;;;;;;;21.70;50.10;20.50;100263.00;;;;5076864;28;20350;-72
2022/10/15 05:50:28;;;;;;;;;;;21.70;50.10;20.50;100269.00;;;;5081678;28;19923;-72
2022/10/15 05:53:14;;;;;;;;;;;21.70;50.10;20.50;100279.00;;;;5079840;28;20355;-72
2022/10/15 05:56:00;;;;;;;;;;;21.70;50.10;20.50;100271.00;;;;5076334;28;19999;-72
2022/10/15 05:58:46;;;;;;;;;;;21.70;50.10;20.50;100266.00;;;;5091933;28;19931;-72
2022/10/15 06:01:32;;;;;;;;;;;21.70;50.10;20.50;100266.00;;;;5072876;28;19916;-72
2022/10/15 06:04:18;;;;;;;;;;;21.70;50.10;20.50;100271.00;;;;5066409;28;19939;-72
2022/10/15 06:07:04;;;;;;;;;;;21.70;50.10;20.50;100273.00;;;;5079851;28;20358;-72
2022/10/15 06:09:50;;;;;;;;;;;21.70;50.10;20.50;100281.00;;;;5076061;28;20676;-72
2022/10/15 06:12:38;;;;;;;;;;;21.70;50.10;20.50;100279.00;;;;5079666;28;20011;-72
2022/10/15 06:15:24;;;;;;;;;;;21.70;50.10;20.50;100284.00;;;;5069053;28;19970;-72
2022/10/15 06:18:11;;;;;;;;;;;21.70;50.80;20.50;100282.00;;;;5076752;28;19916;-74
2022/10/15 06:20:57;;;;;;;;;;;21.70;50.10;20.50;100282.00;;;;5084727;28;19981;-72
2022/10/15 06:23:44;;;;;;;;;;;21.80;50.20;20.50;100288.00;;;;5080708;28;19916;-72
2022/10/15 06:26:33;;;;;;;;;;;21.70;50.10;20.50;100289.00;;;;5070259;28;19951;-72
2022/10/15 06:29:19;;;;;;;;;;;21.70;50.10;20.50;100286.00;;;;5074398;28;19923;-72
2022/10/15 06:32:09;;;;;;;;;;;21.70;50.10;20.50;100291.00;;;;5081760;28;20050;-72
2022/10/15 06:34:55;;;;;;;;;;;21.70;50.10;20.50;100294.00;;;;5087656;28;19966;-72
2022/10/15 06:37:41;;;;;;;;;;;21.70;50.10;20.50;100292.00;;;;5082062;28;19917;-72
2022/10/15 06:40:27;;;;;;;;;;;21.70;50.10;20.50;100298.00;;;;5082863;28;20121;-72
2022/10/15 06:43:13;;;;;;;;;;;21.80;50.20;20.50;100290.00;;;;5078183;28;19916;-72
2022/10/15 06:45:59;;;;;;;;;;;21.70;50.10;20.50;100286.00;;;;5080029;28;19924;-72
2022/10/15 06:48:45;;;;;;;;;;;21.70;50.10;20.50;100286.00;;;;5090765;27;20054;-72
2022/10/15 06:51:31;;;;;;;;;;;21.70;50.10;20.50;100288.00;;;;5082557;28;20034;-72
2022/10/15 06:54:17;;;;;;;;;;;21.70;50.10;20.50;100290.00;;;;5076612;28;20486;-72
2022/10/15 06:57:03;;;;;;;;;;;21.70;50.10;20.50;100290.00;;;;5079634;28;19927;-72
2022/10/15 06:59:49;;;;;;;;;;;21.70;50.10;20.50;100288.00;;;;5081308;28;19916;-72
2022/10/15 07:02:35;;;;;;;;;;;21.70;50.10;20.50;100288.00;;;;5073904;28;19924;-72
2022/10/15 07:05:21;;;;;;;;;;;21.70;50.10;20.40;100289.00;;;;5067419;28;19920;-72
2022/10/15 07:08:07;;;;;;;;;;;21.70;50.10;20.40;100296.00;;;;5086450;27;19916;-73
2022/10/15 07:10:53;;;;;;;;;;;21.70;50.10;20.50;100292.00;;;;5076790;28;19916;-73
2022/10/15 07:13:40;;;;;;;;;;;21.70;50.10;20.40;100290.00;;;;5080699;28;19916;-73
2022/10/15 07:16:26;;;;;;;;;;;21.70;50.10;20.40;100289.00;;;;5083090;28;20274;-72
2022/10/15 07:19:12;;;;;;;;;;;21.70;50.10;20.40;100306.00;;;;5084067;28;20408;-72
2022/10/15 07:21:59;;;;;;;;;;;21.70;50.10;20.40;100307.00;;;;5085507;28;19922;-72
2022/10/15 07:24:45;;;;;;;;;;;21.60;50.10;20.40;100307.00;;;;5082665;28;19928;-73
2022/10/15 07:27:31;;;;;;;;;;;21.70;50.20;20.40;100313.00;;;;5084639;28;19920;-73
2022/10/15 07:30:17;;;;;;;;;;;21.70;50.10;20.40;100313.00;;;;5081785;28;20511;-72
2022/10/15 07:33:03;;;;;;;;;;;21.70;50.10;20.40;100306.00;;;;5074665;28;19970;-72
2022/10/15 07:35:49;;;;;;;;;;;21.70;50.10;20.40;100310.00;;;;5092076;27;19927;-72
2022/10/15 07:38:35;;;;;;;;;;;21.70;50.10;20.40;100308.00;;;;5079343;28;20003;-72
2022/10/15 07:41:21;;;;;;;;;;;21.70;50.10;20.50;100305.00;;;;5079963;28;19982;-73
2022/10/15 07:44:07;;;;;;;;;;;21.70;50.20;20.40;100306.00;;;;5077363;28;19927;-73
2022/10/15 07:46:53;;;;;;;;;;;21.70;50.10;20.50;100309.00;;;;5074907;28;20370;-73
2022/10/15 07:49:39;;;;;;;;;;;21.70;50.10;20.40;100310.00;;;;5078565;28;19927;-73
2022/10/15 07:52:25;;;;;;;;;;;21.70;50.10;20.40;100301.00;;;;5079327;28;19916;-75
2022/10/15 07:55:11;;;;;;;;;;;21.70;50.10;20.50;100295.00;;;;5078295;28;19943;-74
2022/10/15 07:57:57;;;;;;;;;;;21.70;50.10;20.40;100298.00;;;;5083150;28;19927;-74
2022/10/15 08:00:43;;;;;;;;;;;21.70;50.20;20.50;100297.00;;;;5072882;28;19939;-74
2022/10/15 08:03:29;;;;;;;;;;;21.70;50.40;20.40;100299.00;;;;5087237;28;20254;-74
2022/10/15 08:06:15;;;;;;;;;;;21.70;50.20;20.40;100302.00;;;;5081476;28;19928;-74
2022/10/15 08:09:03;;;;;;;;;;;21.70;50.20;20.40;100307.00;;;;5074348;28;19920;-74
2022/10/15 08:11:49;;;;;;;;;;;21.70;50.20;20.40;100300.00;;;;5077761;28;19915;-76
2022/10/15 08:14:35;;;;;;;;;;;21.70;50.20;20.40;100312.00;;;;5076508;28;20281;-75
2022/10/15 08:17:21;;;;;;;;;;;21.70;50.20;20.40;100304.00;;;;5089795;27;19916;-72
2022/10/15 08:20:08;;;;;;;;;;;21.70;50.20;20.40;100305.00;;;;5073438;28;19920;-72
2022/10/15 08:22:54;;;;;;;;;;;21.70;50.20;20.50;100300.00;;;;5073318;28;20366;-72
2022/10/15 08:25:40;;;;;;;;;;;21.70;50.20;20.40;100299.00;;;;5087709;28;20366;-73
2022/10/15 08:28:27;;;;;;;;;;;21.70;50.20;20.40;100307.00;;;;5074134;28;19983;-73
2022/10/15 08:31:13;;;;;;;;;;;21.70;50.20;20.50;100298.00;;;;5079137;28;20412;-72
2022/10/15 08:34:00;;;;;;;;;;;21.70;50.20;20.50;100291.00;;;;5080389;28;19920;-72
2022/10/15 08:36:46;;;;;;;;;;;21.70;50.20;20.40;100288.00;;;;5095005;27;20286;-73
2022/10/15 08:39:32;;;;;;;;;;;21.70;50.20;20.50;100297.00;;;;5082618;28;20305;-73
2022/10/15 08:42:20;;;;;;;;;;;21.70;50.20;20.50;100293.00;;;;5075141;28;20237;-72
2022/10/15 08:45:16;;;;;;;;;;;21.70;50.20;20.50;100296.00;;;;5074518;28;19929;-72
2022/10/15 08:48:09;;;;;;;;;;;21.70;50.30;20.40;100289.00;;;;5094287;28;20016;-72
2022/10/15 08:51:02;;;;;;;;;;;21.70;50.20;20.50;100294.00;;;;5072049;28;19923;-72
2022/10/15 08:53:53;;;;;;;;;;;21.70;50.20;20.40;100292.00;;;;5086581;28;19965;-72
2022/10/15 08:56:44;;;;;;;;;;;21.70;50.30;20.50;100294.00;;;;5088950;28;20392;-73
2022/10/15 08:59:37;;;;;;;;;;;21.80;50.60;20.50;100295.00;;;;5053747;28;20255;-72
2022/10/15 09:02:26;;;;;;;;;;;21.70;50.30;20.50;100297.00;;;;5097290;27;19920;-72
2022/10/15 09:05:15;;;;;;;;;;;21.70;50.30;20.50;100289.00;;;;5076612;28;19943;-72
2022/10/15 09:08:21;;;;;;;;;;;21.70;50.30;20.50;100286.00;;;;5075553;28;20266;-72
2022/10/15 09:11:35;;;;;;;;;;;21.70;51.00;20.50;100285.00;;;;5084544;28;19916;-73
2022/10/15 09:14:24;;;;;;;;;;;21.80;51.10;20.50;100297.00;;;;5082451;28;19920;-72
2022/10/15 09:17:21;;;;;;;;;;;21.70;50.40;20.50;100278.00;;;;5080688;28;19919;-72
2022/10/15 09:20:17;;;;;;;;;;;21.70;50.30;20.50;100290.00;;;;5088471;28;19942;-72
2022/10/15 09:23:07;;;;;;;;;;;21.70;50.40;20.50;100280.00;;;;5057357;28;54563;-72
2022/10/15 09:25:59;;;;;;;;;;;21.70;50.40;20.50;100276.00;;;;5019811;28;19921;-77
2022/10/15 09:28:53;;;;;;;;;;;21.70;50.30;20.50;100278.00;;;;5029800;28;19921;-72
2022/10/15 09:31:51;;;;;;;;;;;21.80;50.40;20.50;100285.00;;;;5043793;28;19916;-72
2022/10/15 09:35:14;;;;;;;;;;;21.80;50.40;20.50;100277.00;;;;5027638;27;19925;-73
2022/10/15 09:38:14;;;;;;;;;;;21.80;50.40;20.50;100280.00;;;;5011106;28;19940;-73
2022/10/15 09:41:06;;;;;;;;;;;21.70;50.40;20.50;100277.00;;;;4989539;28;20272;-73
2022/10/15 09:43:36;;;;;;;;;;;21.80;50.40;20.50;100276.00;;;;5000839;28;19922;-73
2022/10/15 09:49:17;;;;;;;;;;;21.80;50.50;20.50;100277.00;;;;5079079;27;20019;-73
2022/10/15 09:52:05;;;;;;;;;;;21.80;50.50;20.50;100267.00;;;;5018697;28;53740;-73
2022/10/15 09:54:50;;;;;;;;;;;21.70;50.40;20.50;100272.00;;;;5023036;28;19929;-73
2022/10/15 09:57:16;;;;;;;;;;;21.70;50.40;20.50;100262.00;;;;5024252;28;19917;-73
2022/10/15 10:00:08;;;;;;;;;;;21.80;50.40;20.50;100258.00;;;;5022998;28;19918;-73
2022/10/15 10:02:34;;;;;;;;;;;21.80;50.50;20.50;100257.00;;;;5018876;28;19921;-73
2022/10/15 10:05:23;;;;;;;;;;;21.80;50.50;20.50;100258.00;;;;5017950;28;19999;-73
2022/10/15 10:07:48;;;;;;;;;;;21.70;50.50;20.50;100248.00;;;;5020249;28;20525;-73
2022/10/15 10:10:23;;;;;;;;;;;21.70;50.40;20.50;100248.00;;;;5046569;28;19921;-73
2022/10/15 10:12:49;;;;;;;;;;;21.70;50.40;20.50;100234.00;;;;5037834;28;19917;-73
2022/10/15 10:15:20;;;;;;;;;;;21.80;50.50;20.50;100236.00;;;;5023192;28;19924;-72
2022/10/15 10:17:53;;;;;;;;;;;21.80;50.50;20.50;100236.00;;;;5019108;28;19932;-73
2022/10/15 10:20:19;;;;;;;;;;;21.80;50.50;20.50;100227.00;;;;5010164;28;20261;-73
2022/10/15 10:22:56;;;;;;;;;;;21.80;50.50;20.50;100227.00;;;;5019074;28;19921;-73
2022/10/15 10:25:27;;;;;;;;;;;21.80;50.50;20.50;100229.00;;;;5018161;28;19921;-73
2022/10/15 10:27:54;;;;;;;;;;;21.80;50.50;20.50;100231.00;;;;5017209;28;19928;-73
2022/10/15 10:30:19;;;;;;;;;;;21.80;51.20;20.50;100235.00;;;;5021040;28;20001;-73
2022/10/15 10:32:45;;;;;;;;;;;21.80;50.50;20.50;100231.00;;;;5018906;28;20031;-77
2022/10/15 10:35:19;;;;;;;;;;;21.80;50.60;20.50;100235.00;;;;5011669;28;19924;-72
2022/10/15 10:37:45;;;;;;;;;;;21.80;50.60;20.50;100231.00;;;;5018505;28;19940;-73
2022/10/15 10:40:28;;;;;;;;;;;21.80;50.60;20.50;100234.00;;;;5015546;28;19921;-73
2022/10/15 10:43:12;;;;;;;;;;;21.80;50.60;20.40;100238.00;;;;5020954;28;20457;-72
2022/10/15 10:45:38;;;;;;;;;;;21.80;50.70;20.40;100233.00;;;;5019179;28;19975;-73
2022/10/15 10:48:27;;;;;;;;;;;21.80;50.70;20.40;100224.00;;;;5023990;28;19922;-72
2022/10/15 10:51:14;;;;;;;;;;;21.80;50.70;20.40;100231.00;;;;5016193;28;19922;-72
2022/10/15 10:53:59;;;;;;;;;;;21.80;50.70;20.50;100223.00;;;;5047341;28;19925;-73
2022/10/15 10:56:42;;;;;;;;;;;21.80;50.70;20.40;100207.00;;;;5022837;28;20020;-73
2022/10/15 10:59:34;;;;;;;;;;;21.80;50.70;20.50;100205.00;;;;5008466;28;19925;-72
2022/10/15 11:02:02;;;;;;;;;;;21.80;50.70;20.40;100202.00;;;;5003889;28;19941;-72
2022/10/15 11:04:31;;;;;;;;;;;21.80;50.80;20.50;100196.00;;;;5004739;28;19917;-73
2022/10/15 11:07:30;;;;;;;;;;;21.70;50.70;20.50;100185.00;;;;5010182;28;19925;-72
2022/10/15 11:10:02;;;;;;;;;;;21.80;50.80;20.50;100183.00;;;;5009107;28;20076;-73
2022/10/15 11:12:37;;;;;;;;;;;21.80;50.80;20.50;100185.00;;;;5007284;28;20008;-73
2022/10/15 11:15:21;;;;;;;;;;;21.80;50.70;20.50;100176.00;;;;5001834;28;19932;-73
2022/10/15 11:18:05;;;;;;;;;;;21.80;50.70;20.50;100163.00;;;;5000684;28;19968;-73
2022/10/15 11:20:49;;;;;;;;;;;21.80;50.70;20.50;100157.00;;;;5005889;28;19917;-73
2022/10/15 11:23:38;;;;;;;;;;;21.80;50.70;20.50;100156.00;;;;5004714;28;19921;-74
2022/10/15 11:26:25;;;;;;;;;;;21.80;50.70;20.50;100157.00;;;;5006029;28;20466;-73
2022/10/15 11:28:58;;;;;;;;;;;21.80;50.70;20.50;100162.00;;;;5007089;28;19926;-74
2022/10/15 11:31:50;;;;;;;;;;;21.90;50.80;20.60;100161.00;;;;4996205;28;19917;-74
2022/10/15 11:34:31;;;;;;;;;;;21.90;50.80;20.60;100156.00;;;;5006994;28;19926;-73
2022/10/15 11:37:22;;;;;;;;;;;21.80;50.70;20.60;100155.00;;;;5000225;28;19969;-73
2022/10/15 11:39:54;;;;;;;;;;;21.80;50.70;20.60;100162.00;;;;5001986;28;19944;-73
2022/10/15 11:42:37;;;;;;;;;;;21.90;50.80;20.60;100159.00;;;;5000005;28;19963;-73
2022/10/15 11:45:09;;;;;;;;;;;21.90;50.70;20.60;100149.00;;;;5018358;28;19924;-73
2022/10/15 11:47:44;;;;;;;;;;;21.90;50.70;20.60;100147.00;;;;5000468;28;19926;-73
2022/10/15 11:50:33;;;;;;;;;;;21.90;50.70;20.60;100140.00;;;;4997192;28;19949;-73
2022/10/15 11:53:24;;;;;;;;;;;21.90;50.70;20.60;100139.00;;;;5033877;28;19936;-73
2022/10/15 11:56:14;;;;;;;;;;;21.90;50.70;20.60;100129.00;;;;5002456;28;20016;-73
2022/10/15 11:58:55;;;;;;;;;;;21.90;50.70;20.60;100130.00;;;;5006142;28;20306;-74
2022/10/15 12:01:28;;;;;;;;;;;21.90;50.80;20.60;100129.00;;;;5002636;28;19924;-74
2022/10/15 12:03:56;;;;;;;;;;;21.90;50.70;20.60;100123.00;;;;5004476;28;19944;-74
2022/10/15 12:06:25;;;;;;;;;;;22.00;50.80;20.60;100127.00;;;;5019396;28;19920;-73
2022/10/15 12:08:51;;;;;;;;;;;21.90;50.70;20.60;100129.00;;;;5006912;28;20008;-73
2022/10/15 12:11:34;;;;;;;;;;;21.90;50.70;20.60;100134.00;;;;4998326;28;19963;-73
2022/10/15 12:14:01;;;;;;;;;;;22.00;50.80;20.60;100129.00;;;;5006497;28;20318;-74
2022/10/15 12:16:33;;;;;;;;;;;21.90;51.40;20.60;100127.00;;;;5008644;28;19925;-73
2022/10/15 12:19:19;;;;;;;;;;;22.00;50.70;20.60;100126.00;;;;4994895;28;19926;-74
2022/10/15 12:21:53;;;;;;;;;;;21.90;50.70;20.60;100124.00;;;;5004468;28;19918;-74
2022/10/15 12:24:37;;;;;;;;;;;22.00;50.80;20.60;100123.00;;;;5006569;28;19971;-73
2022/10/15 12:27:17;;;;;;;;;;;22.00;50.80;20.60;100122.00;;;;4998798;28;19976;-74
2022/10/15 12:30:06;;;;;;;;;;;21.90;50.80;20.60;100118.00;;;;5004191;28;19976;-73
2022/10/15 12:32:45;;;;;;;;;;;21.90;50.80;20.60;100118.00;;;;4994633;28;20008;-73
2022/10/15 12:35:13;;;;;;;;;;;22.00;51.00;20.60;100112.00;;;;4996138;28;20734;-74
2022/10/15 12:37:39;;;;;;;;;;;21.90;51.00;20.60;100111.00;;;;5002597;28;20341;-74
2022/10/15 12:40:28;;;;;;;;;;;21.90;51.00;20.60;100113.00;;;;5004283;28;19922;-74
2022/10/15 12:43:14;;;;;;;;;;;22.00;51.00;20.60;100111.00;;;;5005657;28;19921;-74
2022/10/15 12:45:46;;;;;;;;;;;21.90;51.00;20.60;100106.00;;;;5020268;28;19918;-73
2022/10/15 12:48:15;;;;;;;;;;;21.90;51.00;20.60;100098.00;;;;5007507;28;19926;-72
2022/10/15 12:50:41;;;;;;;;;;;21.90;51.00;20.60;100100.00;;;;5003359;28;20382;-72
2022/10/15 12:53:27;;;;;;;;;;;21.90;51.00;20.60;100102.00;;;;5010352;28;19917;-73
2022/10/15 12:56:12;;;;;;;;;;;21.90;51.00;20.60;100097.00;;;;4995460;28;20375;-72
2022/10/15 12:58:45;;;;;;;;;;;21.90;51.00;20.60;100101.00;;;;5002683;28;20016;-72
2022/10/15 13:01:14;;;;;;;;;;;21.90;51.10;20.60;100097.00;;;;5002739;28;19918;-72
2022/10/15 13:03:49;;;;;;;;;;;21.90;51.00;20.60;100095.00;;;;5000044;28;19929;-72
2022/10/15 13:06:23;;;;;;;;;;;21.90;51.10;20.60;100092.00;;;;5004702;28;19922;-72
2022/10/15 13:09:10;;;;;;;;;;;21.90;51.10;20.60;100090.00;;;;5005071;28;19922;-72
2022/10/15 13:11:48;;;;;;;;;;;21.90;51.10;20.60;100084.00;;;;5000419;28;19925;-72
2022/10/15 13:14:36;;;;;;;;;;;21.90;51.10;20.60;100081.00;;;;5003079;28;19921;-72
2022/10/15 13:17:04;;;;;;;;;;;21.90;51.10;20.60;100076.00;;;;5001690;28;19929;-73
2022/10/15 13:19:35;;;;;;;;;;;21.90;51.20;20.60;100080.00;;;;5003806;28;20386;-72
2022/10/15 13:22:02;;;;;;;;;;;21.90;51.20;20.60;100078.00;;;;4990548;28;19984;-72